sensor_id;sensor_type;location;lat;lon;timestamp;temperature;humidity
69990;DHT22;57331;52.054;5.294;2022-08-01T00:01:12;18.60;60.80
69990;DHT22;57331;52.054;5.294;2022-08-01T00:03:40;20.90;62.00
69990;DHT22;57331;52.054;5.294;2022-08-01T00:11:01;21.30;62.10
69990;DHT22;57331;52.054;5.294;2022-08-01T00:13:28;19.00;58.10
69990;DHT22;57331;52.054;5.294;2022-08-01T00:15:55;19.10;60.60
69990;DHT22;57331;52.054;5.294;2022-08-01T00:18:22;20.70;61.60
69990;DHT22;57331;52.054;5.294;2022-08-01T00:30:40;20.10;61.70
69990;DHT22;57331;52.054;5.294;2022-08-01T00:33:06;19.40;61.40
69990;DHT22;57331;52.054;5.294;2022-08-01T00:35:33;21.30;62.50
69990;DHT22;57331;52.054;5.294;2022-08-01T00:40:27;19.20;61.60
69990;DHT22;57331;52.054;5.294;2022-08-01T00:45:21;21.00;62.70
69990;DHT22;57331;52.054;5.294;2022-08-01T00:52:50;18.50;56.50
69990;DHT22;57331;52.054;5.294;2022-08-01T00:55:18;19.40;62.20
69990;DHT22;57331;52.054;5.294;2022-08-01T00:57:47;19.70;50.90
69990;DHT22;57331;52.054;5.294;2022-08-01T01:00:34;20.30;62.80
69990;DHT22;57331;52.054;5.294;2022-08-01T01:03:19;21.00;63.30
69990;DHT22;57331;52.054;5.294;2022-08-01T01:06:30;18.60;62.10
69990;DHT22;57331;52.054;5.294;2022-08-01T01:09:15;18.40;62.10
69990;DHT22;57331;52.054;5.294;2022-08-01T01:14:38;20.90;63.40
69990;DHT22;57331;52.054;5.294;2022-08-01T01:17:07;19.60;51.20
69990;DHT22;57331;52.054;5.294;2022-08-01T01:19:39;19.60;51.00
69990;DHT22;57331;52.054;5.294;2022-08-01T01:22:17;21.10;62.30
69990;DHT22;57331;52.054;5.294;2022-08-01T01:25:07;19.20;63.00
69990;DHT22;57331;52.054;5.294;2022-08-01T01:27:45;18.70;62.60
69990;DHT22;57331;52.054;5.294;2022-08-01T01:30:13;20.70;63.60
69990;DHT22;57331;52.054;5.294;2022-08-01T01:32:46;18.50;62.60
69990;DHT22;57331;52.054;5.294;2022-08-01T01:35:19;21.00;63.90
69990;DHT22;57331;52.054;5.294;2022-08-01T01:37:51;19.60;51.40
69990;DHT22;57331;52.054;5.294;2022-08-01T01:40:18;19.90;51.70
69990;DHT22;57331;52.054;5.294;2022-08-01T01:47:42;20.10;63.60
69990;DHT22;57331;52.054;5.294;2022-08-01T01:50:11;20.90;64.10
69990;DHT22;57331;52.054;5.294;2022-08-01T01:52:39;19.50;51.60
69990;DHT22;57331;52.054;5.294;2022-08-01T01:55:09;19.60;63.40
69990;DHT22;57331;52.054;5.294;2022-08-01T01:57:39;19.60;51.60
69990;DHT22;57331;52.054;5.294;2022-08-01T02:00:09;20.60;64.10
69990;DHT22;57331;52.054;5.294;2022-08-01T02:02:37;19.60;63.50
69990;DHT22;57331;52.054;5.294;2022-08-01T02:05:09;20.80;63.90
69990;DHT22;57331;52.054;5.294;2022-08-01T02:07:38;20.70;58.50
69990;DHT22;57331;52.054;5.294;2022-08-01T02:10:06;19.40;63.10
69990;DHT22;57331;52.054;5.294;2022-08-01T02:12:36;19.60;51.80
69990;DHT22;57331;52.054;5.294;2022-08-01T02:15:04;19.60;51.70
69990;DHT22;57331;52.054;5.294;2022-08-01T02:19:59;19.30;63.40
69990;DHT22;57331;52.054;5.294;2022-08-01T02:22:30;19.50;51.80
69990;DHT22;57331;52.054;5.294;2022-08-01T02:25:11;20.10;58.40
69990;DHT22;57331;52.054;5.294;2022-08-01T02:27:45;19.50;52.10
69990;DHT22;57331;52.054;5.294;2022-08-01T02:30:15;19.50;52.00
69990;DHT22;57331;52.054;5.294;2022-08-01T02:32:48;19.50;51.90
69990;DHT22;57331;52.054;5.294;2022-08-01T02:35:32;19.50;51.90
69990;DHT22;57331;52.054;5.294;2022-08-01T02:38:23;19.50;52.00
69990;DHT22;57331;52.054;5.294;2022-08-01T02:40:52;19.50;52.00
69990;DHT22;57331;52.054;5.294;2022-08-01T02:43:21;18.60;63.30
69990;DHT22;57331;52.054;5.294;2022-08-01T02:45:54;21.00;59.10
69990;DHT22;57331;52.054;5.294;2022-08-01T02:48:24;19.20;63.80
69990;DHT22;57331;52.054;5.294;2022-08-01T02:50:54;19.50;52.30
69990;DHT22;57331;52.054;5.294;2022-08-01T02:53:23;19.30;63.90
69990;DHT22;57331;52.054;5.294;2022-08-01T02:56:12;19.20;63.80
69990;DHT22;57331;52.054;5.294;2022-08-01T02:58:40;19.00;64.00
69990;DHT22;57331;52.054;5.294;2022-08-01T03:01:09;19.40;52.20
69990;DHT22;57331;52.054;5.294;2022-08-01T03:03:37;18.40;63.30
69990;DHT22;57331;52.054;5.294;2022-08-01T03:06:05;19.50;52.10
69990;DHT22;57331;52.054;5.294;2022-08-01T03:08:34;20.60;59.00
69990;DHT22;57331;52.054;5.294;2022-08-01T03:11:03;20.50;64.20
69990;DHT22;57331;52.054;5.294;2022-08-01T03:13:32;19.10;63.60
69990;DHT22;57331;52.054;5.294;2022-08-01T03:16:00;19.50;52.20
69990;DHT22;57331;52.054;5.294;2022-08-01T03:18:29;20.20;64.50
69990;DHT22;57331;52.054;5.294;2022-08-01T03:23:24;18.90;64.20
69990;DHT22;57331;52.054;5.294;2022-08-01T03:26:05;18.00;63.60
69990;DHT22;57331;52.054;5.294;2022-08-01T03:28:32;18.80;64.40
69990;DHT22;57331;52.054;5.294;2022-08-01T03:31:00;18.10;63.70
69990;DHT22;57331;52.054;5.294;2022-08-01T03:33:28;19.30;52.70
69990;DHT22;57331;52.054;5.294;2022-08-01T03:35:55;18.80;64.10
69990;DHT22;57331;52.054;5.294;2022-08-01T03:38:25;19.10;64.40
69990;DHT22;57331;52.054;5.294;2022-08-01T03:40:56;19.30;53.00
69990;DHT22;57331;52.054;5.294;2022-08-01T03:43:36;20.20;53.90
69990;DHT22;57331;52.054;5.294;2022-08-01T03:46:11;18.60;64.30
69990;DHT22;57331;52.054;5.294;2022-08-01T03:48:43;19.30;53.30
69990;DHT22;57331;52.054;5.294;2022-08-01T03:51:12;18.00;64.40
69990;DHT22;57331;52.054;5.294;2022-08-01T03:53:42;20.40;65.70
69990;DHT22;57331;52.054;5.294;2022-08-01T03:56:09;19.10;64.90
69990;DHT22;57331;52.054;5.294;2022-08-01T03:58:39;18.90;64.80
69990;DHT22;57331;52.054;5.294;2022-08-01T04:01:07;18.30;54.30
69990;DHT22;57331;52.054;5.294;2022-08-01T04:03:42;18.00;64.20
69990;DHT22;57331;52.054;5.294;2022-08-01T04:08:38;18.10;64.10
69990;DHT22;57331;52.054;5.294;2022-08-01T04:13:34;18.60;64.20
69990;DHT22;57331;52.054;5.294;2022-08-01T04:16:03;18.40;56.90
69990;DHT22;57331;52.054;5.294;2022-08-01T04:18:30;18.00;56.20
69990;DHT22;57331;52.054;5.294;2022-08-01T04:23:26;19.10;52.90
69990;DHT22;57331;52.054;5.294;2022-08-01T04:25:55;19.10;52.80
69990;DHT22;57331;52.054;5.294;2022-08-01T04:28:23;17.90;64.00
69990;DHT22;57331;52.054;5.294;2022-08-01T04:30:53;18.40;62.00
69990;DHT22;57331;52.054;5.294;2022-08-01T04:33:28;18.10;64.00
69990;DHT22;57331;52.054;5.294;2022-08-01T04:35:58;18.80;64.40
69990;DHT22;57331;52.054;5.294;2022-08-01T04:38:32;20.50;65.40
69990;DHT22;57331;52.054;5.294;2022-08-01T04:43:39;18.00;58.60
69990;DHT22;57331;52.054;5.294;2022-08-01T04:46:07;19.20;52.90
69990;DHT22;57331;52.054;5.294;2022-08-01T04:48:38;20.60;65.40
69990;DHT22;57331;52.054;5.294;2022-08-01T04:51:15;20.20;65.10
69990;DHT22;57331;52.054;5.294;2022-08-01T04:53:44;18.00;63.90
69990;DHT22;57331;52.054;5.294;2022-08-01T04:58:40;18.50;56.50
69990;DHT22;57331;52.054;5.294;2022-08-01T05:01:08;19.30;64.20
69990;DHT22;57331;52.054;5.294;2022-08-01T05:06:05;18.70;63.90
69990;DHT22;57331;52.054;5.294;2022-08-01T05:08:32;20.80;55.80
69990;DHT22;57331;52.054;5.294;2022-08-01T05:13:27;20.80;64.80
69990;DHT22;57331;52.054;5.294;2022-08-01T05:15:54;20.50;64.40
69990;DHT22;57331;52.054;5.294;2022-08-01T05:18:21;19.10;63.80
69990;DHT22;57331;52.054;5.294;2022-08-01T05:26:08;21.10;56.50
69990;DHT22;57331;52.054;5.294;2022-08-01T05:28:35;18.40;63.20
69990;DHT22;57331;52.054;5.294;2022-08-01T05:31:03;20.50;56.10
69990;DHT22;57331;52.054;5.294;2022-08-01T05:35:57;20.80;64.10
69990;DHT22;57331;52.054;5.294;2022-08-01T05:38:24;19.00;63.10
69990;DHT22;57331;52.054;5.294;2022-08-01T05:45:45;18.60;62.60
69990;DHT22;57331;52.054;5.294;2022-08-01T05:55:35;19.80;50.70
69990;DHT22;57331;52.054;5.294;2022-08-01T06:00:29;21.20;63.20
69990;DHT22;57331;52.054;5.294;2022-08-01T06:05:23;18.70;61.60
69990;DHT22;57331;52.054;5.294;2022-08-01T06:07:50;21.00;63.00
69990;DHT22;57331;52.054;5.294;2022-08-01T06:10:17;21.20;62.90
69990;DHT22;57331;52.054;5.294;2022-08-01T06:12:44;20.50;62.50
69990;DHT22;57331;52.054;5.294;2022-08-01T06:15:12;19.70;50.40
69990;DHT22;57331;52.054;5.294;2022-08-01T06:20:08;18.80;62.00
69990;DHT22;57331;52.054;5.294;2022-08-01T06:22:35;20.70;63.10
69990;DHT22;57331;52.054;5.294;2022-08-01T06:25:04;21.10;63.30
69990;DHT22;57331;52.054;5.294;2022-08-01T06:27:34;19.40;55.90
69990;DHT22;57331;52.054;5.294;2022-08-01T06:30:02;19.20;62.20
69990;DHT22;57331;52.054;5.294;2022-08-01T06:32:29;21.20;63.40
69990;DHT22;57331;52.054;5.294;2022-08-01T06:34:57;19.90;62.60
69990;DHT22;57331;52.054;5.294;2022-08-01T06:37:31;20.60;62.80
69990;DHT22;57331;52.054;5.294;2022-08-01T06:40:04;19.80;62.20
69990;DHT22;57331;52.054;5.294;2022-08-01T06:42:31;18.90;61.50
69990;DHT22;57331;52.054;5.294;2022-08-01T06:47:29;19.00;61.30
69990;DHT22;57331;52.054;5.294;2022-08-01T06:52:24;19.20;59.80
69990;DHT22;57331;52.054;5.294;2022-08-01T06:54:51;18.70;61.10
69990;DHT22;57331;52.054;5.294;2022-08-01T06:57:17;19.40;52.90
69990;DHT22;57331;52.054;5.294;2022-08-01T06:59:44;19.60;61.40
69990;DHT22;57331;52.054;5.294;2022-08-01T07:07:14;21.30;62.00
69990;DHT22;57331;52.054;5.294;2022-08-01T07:12:09;19.90;61.20
69990;DHT22;57331;52.054;5.294;2022-08-01T07:14:35;19.10;60.50
69990;DHT22;57331;52.054;5.294;2022-08-01T07:29:24;20.20;49.00
69990;DHT22;57331;52.054;5.294;2022-08-01T07:31:53;20.20;60.20
69990;DHT22;57331;52.054;5.294;2022-08-01T07:34:21;21.70;60.80
69990;DHT22;57331;52.054;5.294;2022-08-01T07:36:49;21.40;58.10
69990;DHT22;57331;52.054;5.294;2022-08-01T07:39:16;20.40;60.30
69990;DHT22;57331;52.054;5.294;2022-08-01T07:41:43;18.90;59.60
69990;DHT22;57331;52.054;5.294;2022-08-01T07:44:30;19.50;60.10
69990;DHT22;57331;52.054;5.294;2022-08-01T07:46:57;18.90;60.00
69990;DHT22;57331;52.054;5.294;2022-08-01T07:49:23;18.90;60.00
69990;DHT22;57331;52.054;5.294;2022-08-01T07:51:50;21.10;61.00
69990;DHT22;57331;52.054;5.294;2022-08-01T07:54:31;19.80;60.50
69990;DHT22;57331;52.054;5.294;2022-08-01T07:57:00;20.20;58.70
69990;DHT22;57331;52.054;5.294;2022-08-01T08:09:16;18.90;60.60
69990;DHT22;57331;52.054;5.294;2022-08-01T08:11:43;20.10;49.50
69990;DHT22;57331;52.054;5.294;2022-08-01T08:14:15;20.20;49.30
69990;DHT22;57331;52.054;5.294;2022-08-01T08:16:42;20.50;49.60
69990;DHT22;57331;52.054;5.294;2022-08-01T08:19:11;21.60;61.60
69990;DHT22;57331;52.054;5.294;2022-08-01T08:21:38;21.40;61.30
69990;DHT22;57331;52.054;5.294;2022-08-01T08:24:06;20.50;49.20
69990;DHT22;57331;52.054;5.294;2022-08-01T08:26:55;21.80;61.10
69990;DHT22;57331;52.054;5.294;2022-08-01T08:29:22;21.70;60.70
69990;DHT22;57331;52.054;5.294;2022-08-01T08:31:49;20.60;60.10
69990;DHT22;57331;52.054;5.294;2022-08-01T08:34:19;20.00;59.60
69990;DHT22;57331;52.054;5.294;2022-08-01T08:36:47;20.90;59.60
69990;DHT22;57331;52.054;5.294;2022-08-01T08:39:15;21.30;48.10
69990;DHT22;57331;52.054;5.294;2022-08-01T08:44:16;21.50;47.40
69990;DHT22;57331;52.054;5.294;2022-08-01T08:46:45;20.50;50.40
69990;DHT22;57331;52.054;5.294;2022-08-01T08:49:17;21.70;47.20
69990;DHT22;57331;52.054;5.294;2022-08-01T08:51:47;21.70;47.00
69990;DHT22;57331;52.054;5.294;2022-08-01T08:54:16;21.80;46.80
69990;DHT22;57331;52.054;5.294;2022-08-01T08:56:45;21.80;46.60
69990;DHT22;57331;52.054;5.294;2022-08-01T08:59:13;23.30;52.70
69990;DHT22;57331;52.054;5.294;2022-08-01T09:01:41;22.80;57.70
69990;DHT22;57331;52.054;5.294;2022-08-01T09:04:09;22.10;46.00
69990;DHT22;57331;52.054;5.294;2022-08-01T09:06:36;20.80;56.20
69990;DHT22;57331;52.054;5.294;2022-08-01T09:09:04;22.20;45.60
69990;DHT22;57331;52.054;5.294;2022-08-01T09:11:31;22.70;56.40
69990;DHT22;57331;52.054;5.294;2022-08-01T09:16:30;23.20;56.50
69990;DHT22;57331;52.054;5.294;2022-08-01T09:22:05;23.20;56.80
69990;DHT22;57331;52.054;5.294;2022-08-01T09:24:34;23.00;56.60
69990;DHT22;57331;52.054;5.294;2022-08-01T09:27:15;22.10;45.10
69990;DHT22;57331;52.054;5.294;2022-08-01T09:29:46;23.30;56.10
69990;DHT22;57331;52.054;5.294;2022-08-01T09:35:29;23.30;54.60
69990;DHT22;57331;52.054;5.294;2022-08-01T09:38:22;21.30;53.00
69990;DHT22;57331;52.054;5.294;2022-08-01T09:43:19;22.60;53.30
69990;DHT22;57331;52.054;5.294;2022-08-01T09:48:17;21.40;52.80
69990;DHT22;57331;52.054;5.294;2022-08-01T09:50:48;22.70;43.00
69990;DHT22;57331;52.054;5.294;2022-08-01T09:53:15;24.30;53.80
69990;DHT22;57331;52.054;5.294;2022-08-01T09:56:09;23.60;52.90
69990;DHT22;57331;52.054;5.294;2022-08-01T09:59:09;23.30;51.90
69990;DHT22;57331;52.054;5.294;2022-08-01T10:01:46;25.10;51.90
69990;DHT22;57331;52.054;5.294;2022-08-01T10:06:50;23.50;50.80
69990;DHT22;57331;52.054;5.294;2022-08-01T10:09:29;24.50;49.70
69990;DHT22;57331;52.054;5.294;2022-08-01T10:12:06;24.10;48.60
69990;DHT22;57331;52.054;5.294;2022-08-01T10:14:36;24.80;46.70
69990;DHT22;57331;52.054;5.294;2022-08-01T10:17:04;25.10;38.60
69990;DHT22;57331;52.054;5.294;2022-08-01T10:19:35;24.90;37.20
69990;DHT22;57331;52.054;5.294;2022-08-01T10:22:07;25.70;43.70
69990;DHT22;57331;52.054;5.294;2022-08-01T10:24:38;25.90;43.00
69990;DHT22;57331;52.054;5.294;2022-08-01T10:27:10;24.00;42.90
69990;DHT22;57331;52.054;5.294;2022-08-01T10:29:46;24.70;34.70
69990;DHT22;57331;52.054;5.294;2022-08-01T10:32:34;25.40;35.50
69990;DHT22;57331;52.054;5.294;2022-08-01T10:35:04;24.70;35.20
69990;DHT22;57331;52.054;5.294;2022-08-01T10:37:35;25.60;42.70
69990;DHT22;57331;52.054;5.294;2022-08-01T10:40:18;24.50;43.70
69990;DHT22;57331;52.054;5.294;2022-08-01T10:42:56;23.10;41.50
69990;DHT22;57331;52.054;5.294;2022-08-01T10:45:23;26.30;44.40
69990;DHT22;57331;52.054;5.294;2022-08-01T10:48:09;24.70;42.00
69990;DHT22;57331;52.054;5.294;2022-08-01T10:50:42;24.50;43.00
69990;DHT22;57331;52.054;5.294;2022-08-01T10:53:20;25.40;43.10
69990;DHT22;57331;52.054;5.294;2022-08-01T10:58:33;24.80;32.60
69990;DHT22;57331;52.054;5.294;2022-08-01T11:01:20;25.30;41.50
69990;DHT22;57331;52.054;5.294;2022-08-01T11:04:10;26.20;42.10
69990;DHT22;57331;52.054;5.294;2022-08-01T11:06:53;25.10;31.00
69990;DHT22;57331;52.054;5.294;2022-08-01T11:09:24;26.10;40.10
69990;DHT22;57331;52.054;5.294;2022-08-01T11:20:27;24.70;40.10
69990;DHT22;57331;52.054;5.294;2022-08-01T11:28:26;24.90;29.40
69990;DHT22;57331;52.054;5.294;2022-08-01T11:41:40;26.00;36.70
69990;DHT22;57331;52.054;5.294;2022-08-01T11:44:18;26.60;28.70
69990;DHT22;57331;52.054;5.294;2022-08-01T11:52:14;26.70;32.30
69990;DHT22;57331;52.054;5.294;2022-08-01T11:57:21;27.00;24.60
69990;DHT22;57331;52.054;5.294;2022-08-01T11:59:54;27.10;24.60
69990;DHT22;57331;52.054;5.294;2022-08-01T12:02:37;27.20;24.80
69990;DHT22;57331;52.054;5.294;2022-08-01T12:05:10;26.40;29.90
69990;DHT22;57331;52.054;5.294;2022-08-01T12:07:41;28.40;30.50
69990;DHT22;57331;52.054;5.294;2022-08-01T12:10:14;27.50;23.80
69990;DHT22;57331;52.054;5.294;2022-08-01T12:12:54;27.50;22.80
69990;DHT22;57331;52.054;5.294;2022-08-01T12:15:24;27.40;20.90
69990;DHT22;57331;52.054;5.294;2022-08-01T12:18:02;27.80;22.10
69990;DHT22;57331;52.054;5.294;2022-08-01T12:20:34;28.20;26.90
69990;DHT22;57331;52.054;5.294;2022-08-01T12:23:03;26.10;26.60
69990;DHT22;57331;52.054;5.294;2022-08-01T12:25:35;26.00;27.80
69990;DHT22;57331;52.054;5.294;2022-08-01T12:28:04;27.10;21.40
69990;DHT22;57331;52.054;5.294;2022-08-01T12:30:33;27.20;21.80
69990;DHT22;57331;52.054;5.294;2022-08-01T12:33:17;27.40;21.40
69990;DHT22;57331;52.054;5.294;2022-08-01T12:35:44;27.40;20.00
69990;DHT22;57331;52.054;5.294;2022-08-01T12:38:17;27.40;20.80
69990;DHT22;57331;52.054;5.294;2022-08-01T12:40:46;27.50;26.50
69990;DHT22;57331;52.054;5.294;2022-08-01T12:43:21;27.00;19.80
69990;DHT22;57331;52.054;5.294;2022-08-01T12:45:58;27.90;19.10
69990;DHT22;57331;52.054;5.294;2022-08-01T12:48:26;28.10;18.90
69990;DHT22;57331;52.054;5.294;2022-08-01T12:50:54;28.50;18.90
69990;DHT22;57331;52.054;5.294;2022-08-01T12:53:25;28.10;23.30
69990;DHT22;57331;52.054;5.294;2022-08-01T12:56:07;30.50;23.50
69990;DHT22;57331;52.054;5.294;2022-08-01T12:58:34;29.60;17.40
69990;DHT22;57331;52.054;5.294;2022-08-01T13:01:04;30.40;19.90
69990;DHT22;57331;52.054;5.294;2022-08-01T13:03:31;30.30;19.00
69990;DHT22;57331;52.054;5.294;2022-08-01T13:05:59;29.10;18.90
69990;DHT22;57331;52.054;5.294;2022-08-01T13:08:32;30.00;18.80
69990;DHT22;57331;52.054;5.294;2022-08-01T13:11:04;30.90;13.70
69990;DHT22;57331;52.054;5.294;2022-08-01T13:13:51;30.70;16.90
69990;DHT22;57331;52.054;5.294;2022-08-01T13:16:22;31.50;8.60
69990;DHT22;57331;52.054;5.294;2022-08-01T13:19:08;31.30;11.20
69990;DHT22;57331;52.054;5.294;2022-08-01T13:21:35;30.90;11.70
69990;DHT22;57331;52.054;5.294;2022-08-01T13:24:29;31.70;17.20
69990;DHT22;57331;52.054;5.294;2022-08-01T13:29:38;31.20;12.00
69990;DHT22;57331;52.054;5.294;2022-08-01T13:32:16;31.50;10.80
69990;DHT22;57331;52.054;5.294;2022-08-01T13:35:06;31.80;10.80
69990;DHT22;57331;52.054;5.294;2022-08-01T13:37:35;32.10;10.70
69990;DHT22;57331;52.054;5.294;2022-08-01T13:40:05;32.30;10.90
69990;DHT22;57331;52.054;5.294;2022-08-01T13:42:33;32.40;10.50
69990;DHT22;57331;52.054;5.294;2022-08-01T13:45:00;32.50;10.40
69990;DHT22;57331;52.054;5.294;2022-08-01T13:47:29;33.60;11.10
69990;DHT22;57331;52.054;5.294;2022-08-01T13:49:59;32.50;10.00
69990;DHT22;57331;52.054;5.294;2022-08-01T13:52:29;32.00;9.90
69990;DHT22;57331;52.054;5.294;2022-08-01T13:54:57;31.30;10.10
69990;DHT22;57331;52.054;5.294;2022-08-01T13:57:24;30.90;10.80
69990;DHT22;57331;52.054;5.294;2022-08-01T14:00:05;30.90;10.70
69990;DHT22;57331;52.054;5.294;2022-08-01T14:02:37;31.30;10.80
69990;DHT22;57331;52.054;5.294;2022-08-01T14:05:04;31.50;9.70
69990;DHT22;57331;52.054;5.294;2022-08-01T14:07:31;31.70;9.70
69990;DHT22;57331;52.054;5.294;2022-08-01T14:09:58;31.90;9.60
69990;DHT22;57331;52.054;5.294;2022-08-01T14:12:44;32.00;8.90
69990;DHT22;57331;52.054;5.294;2022-08-01T14:15:11;32.00;9.10
69990;DHT22;57331;52.054;5.294;2022-08-01T14:17:39;32.20;8.80
69990;DHT22;57331;52.054;5.294;2022-08-01T14:20:13;32.30;8.60
69990;DHT22;57331;52.054;5.294;2022-08-01T14:22:40;32.00;12.40
69990;DHT22;57331;52.054;5.294;2022-08-01T14:25:08;32.50;8.20
69990;DHT22;57331;52.054;5.294;2022-08-01T14:27:35;32.40;7.70
69990;DHT22;57331;52.054;5.294;2022-08-01T14:30:06;32.30;7.50
69990;DHT22;57331;52.054;5.294;2022-08-01T14:32:33;32.10;6.90
69990;DHT22;57331;52.054;5.294;2022-08-01T14:35:01;32.00;7.80
69990;DHT22;57331;52.054;5.294;2022-08-01T14:37:28;32.30;7.80
69990;DHT22;57331;52.054;5.294;2022-08-01T14:39:59;32.50;7.90
69990;DHT22;57331;52.054;5.294;2022-08-01T14:42:33;32.90;7.60
69990;DHT22;57331;52.054;5.294;2022-08-01T14:45:00;33.30;7.20
69990;DHT22;57331;52.054;5.294;2022-08-01T14:47:27;33.40;4.90
69990;DHT22;57331;52.054;5.294;2022-08-01T14:49:53;33.40;6.00
69990;DHT22;57331;52.054;5.294;2022-08-01T14:52:20;33.50;6.00
69990;DHT22;57331;52.054;5.294;2022-08-01T14:54:47;33.70;5.40
69990;DHT22;57331;52.054;5.294;2022-08-01T14:57:14;33.70;5.00
69990;DHT22;57331;52.054;5.294;2022-08-01T14:59:44;33.70;5.00
69990;DHT22;57331;52.054;5.294;2022-08-01T15:02:11;33.70;4.70
69990;DHT22;57331;52.054;5.294;2022-08-01T15:04:39;33.80;5.10
69990;DHT22;57331;52.054;5.294;2022-08-01T15:07:06;34.00;4.60
69990;DHT22;57331;52.054;5.294;2022-08-01T15:09:33;33.90;4.30
69990;DHT22;57331;52.054;5.294;2022-08-01T15:12:00;34.00;4.60
69990;DHT22;57331;52.054;5.294;2022-08-01T15:14:27;34.10;4.60
69990;DHT22;57331;52.054;5.294;2022-08-01T15:17:15;34.20;4.30
69990;DHT22;57331;52.054;5.294;2022-08-01T15:19:41;34.10;4.00
69990;DHT22;57331;52.054;5.294;2022-08-01T15:22:09;34.00;4.40
69990;DHT22;57331;52.054;5.294;2022-08-01T15:24:36;33.80;3.90
69990;DHT22;57331;52.054;5.294;2022-08-01T15:27:03;33.80;4.20
69990;DHT22;57331;52.054;5.294;2022-08-01T15:29:29;33.60;3.60
69990;DHT22;57331;52.054;5.294;2022-08-01T15:31:56;33.60;3.80
69990;DHT22;57331;52.054;5.294;2022-08-01T15:34:23;33.40;4.00
69990;DHT22;57331;52.054;5.294;2022-08-01T15:36:50;33.50;4.10
69990;DHT22;57331;52.054;5.294;2022-08-01T15:39:17;33.50;3.90
69990;DHT22;57331;52.054;5.294;2022-08-01T15:41:44;33.30;3.40
69990;DHT22;57331;52.054;5.294;2022-08-01T15:44:11;33.30;3.80
69990;DHT22;57331;52.054;5.294;2022-08-01T15:46:37;33.30;3.80
69990;DHT22;57331;52.054;5.294;2022-08-01T15:49:04;33.30;3.90
69990;DHT22;57331;52.054;5.294;2022-08-01T15:51:32;33.30;3.80
69990;DHT22;57331;52.054;5.294;2022-08-01T15:53:59;33.10;3.80
69990;DHT22;57331;52.054;5.294;2022-08-01T15:56:29;33.50;3.90
69990;DHT22;57331;52.054;5.294;2022-08-01T15:58:57;32.90;2.80
69990;DHT22;57331;52.054;5.294;2022-08-01T16:01:24;32.80;3.10
69990;DHT22;57331;52.054;5.294;2022-08-01T16:03:53;32.70;3.60
69990;DHT22;57331;52.054;5.294;2022-08-01T16:06:20;32.80;4.00
69990;DHT22;57331;52.054;5.294;2022-08-01T16:08:47;33.10;7.70
69990;DHT22;57331;52.054;5.294;2022-08-01T16:11:14;32.70;3.30
69990;DHT22;57331;52.054;5.294;2022-08-01T16:13:41;32.80;3.20
69990;DHT22;57331;52.054;5.294;2022-08-01T16:16:10;32.80;3.50
69990;DHT22;57331;52.054;5.294;2022-08-01T16:18:38;32.70;3.60
69990;DHT22;57331;52.054;5.294;2022-08-01T16:21:04;32.70;3.30
69990;DHT22;57331;52.054;5.294;2022-08-01T16:23:31;32.70;3.20
69990;DHT22;57331;52.054;5.294;2022-08-01T16:25:58;32.60;2.70
69990;DHT22;57331;52.054;5.294;2022-08-01T16:28:25;32.60;3.00
69990;DHT22;57331;52.054;5.294;2022-08-01T16:30:52;32.50;2.50
69990;DHT22;57331;52.054;5.294;2022-08-01T16:33:38;32.40;3.30
69990;DHT22;57331;52.054;5.294;2022-08-01T16:36:20;32.50;3.40
69990;DHT22;57331;52.054;5.294;2022-08-01T16:38:50;32.50;2.90
69990;DHT22;57331;52.054;5.294;2022-08-01T16:41:17;32.40;3.50
69990;DHT22;57331;52.054;5.294;2022-08-01T16:43:47;32.40;3.70
69990;DHT22;57331;52.054;5.294;2022-08-01T16:46:19;32.40;3.60
69990;DHT22;57331;52.054;5.294;2022-08-01T16:48:46;32.30;4.00
69990;DHT22;57331;52.054;5.294;2022-08-01T16:51:13;32.30;4.30
69990;DHT22;57331;52.054;5.294;2022-08-01T16:53:41;32.30;4.50
69990;DHT22;57331;52.054;5.294;2022-08-01T16:56:07;32.30;4.60
69990;DHT22;57331;52.054;5.294;2022-08-01T16:58:34;32.20;4.60
69990;DHT22;57331;52.054;5.294;2022-08-01T17:01:01;32.20;4.70
69990;DHT22;57331;52.054;5.294;2022-08-01T17:03:48;32.00;4.70
69990;DHT22;57331;52.054;5.294;2022-08-01T17:06:19;31.90;5.00
69990;DHT22;57331;52.054;5.294;2022-08-01T17:08:48;31.80;4.80
69990;DHT22;57331;52.054;5.294;2022-08-01T17:11:15;32.80;11.00
69990;DHT22;57331;52.054;5.294;2022-08-01T17:13:42;31.60;5.20
69990;DHT22;57331;52.054;5.294;2022-08-01T17:16:10;31.60;5.20
69990;DHT22;57331;52.054;5.294;2022-08-01T17:18:37;31.50;5.20
69990;DHT22;57331;52.054;5.294;2022-08-01T17:21:03;32.10;11.30
69990;DHT22;57331;52.054;5.294;2022-08-01T17:23:30;31.40;5.50
69990;DHT22;57331;52.054;5.294;2022-08-01T17:25:58;31.30;5.70
69990;DHT22;57331;52.054;5.294;2022-08-01T17:28:25;31.20;5.60
69990;DHT22;57331;52.054;5.294;2022-08-01T17:30:52;31.10;5.90
69990;DHT22;57331;52.054;5.294;2022-08-01T17:33:19;31.00;5.60
69990;DHT22;57331;52.054;5.294;2022-08-01T17:35:46;30.70;6.10
69990;DHT22;57331;52.054;5.294;2022-08-01T17:38:13;30.60;6.50
69990;DHT22;57331;52.054;5.294;2022-08-01T17:40:42;30.50;6.50
69990;DHT22;57331;52.054;5.294;2022-08-01T17:43:09;30.50;6.70
69990;DHT22;57331;52.054;5.294;2022-08-01T17:45:36;29.80;12.40
69990;DHT22;57331;52.054;5.294;2022-08-01T17:48:17;30.30;6.80
69990;DHT22;57331;52.054;5.294;2022-08-01T17:50:46;30.10;6.80
69990;DHT22;57331;52.054;5.294;2022-08-01T17:53:14;30.10;6.80
69990;DHT22;57331;52.054;5.294;2022-08-01T17:55:47;29.90;7.00
69990;DHT22;57331;52.054;5.294;2022-08-01T17:58:25;28.40;12.60
69990;DHT22;57331;52.054;5.294;2022-08-01T18:01:14;28.50;13.70
69990;DHT22;57331;52.054;5.294;2022-08-01T18:03:41;29.20;7.70
69990;DHT22;57331;52.054;5.294;2022-08-01T18:06:10;29.10;7.70
69990;DHT22;57331;52.054;5.294;2022-08-01T18:08:39;28.80;7.50
69990;DHT22;57331;52.054;5.294;2022-08-01T18:11:08;28.80;7.40
69990;DHT22;57331;52.054;5.294;2022-08-01T18:13:35;28.70;13.60
69990;DHT22;57331;52.054;5.294;2022-08-01T18:16:07;28.80;13.80
69990;DHT22;57331;52.054;5.294;2022-08-01T18:18:35;28.50;7.40
69990;DHT22;57331;52.054;5.294;2022-08-01T18:21:02;27.40;13.60
69990;DHT22;57331;52.054;5.294;2022-08-01T18:23:28;28.60;14.70
69990;DHT22;57331;52.054;5.294;2022-08-01T18:25:55;28.40;13.60
69990;DHT22;57331;52.054;5.294;2022-08-01T18:28:23;28.10;7.50
69990;DHT22;57331;52.054;5.294;2022-08-01T18:30:58;26.40;13.70
69990;DHT22;57331;52.054;5.294;2022-08-01T18:33:25;25.90;13.00
69990;DHT22;57331;52.054;5.294;2022-08-01T18:35:51;27.30;8.10
69990;DHT22;57331;52.054;5.294;2022-08-01T18:38:19;27.50;14.40
69990;DHT22;57331;52.054;5.294;2022-08-01T18:40:50;25.00;13.20
69990;DHT22;57331;52.054;5.294;2022-08-01T18:43:17;26.60;15.60
69990;DHT22;57331;52.054;5.294;2022-08-01T18:45:44;25.90;15.90
69990;DHT22;57331;52.054;5.294;2022-08-01T18:48:11;26.70;9.40
69990;DHT22;57331;52.054;5.294;2022-08-01T18:50:38;24.40;16.00